createdAt,value
2023-04-15T00:00:37.418Z,83014.59
2023-04-15T00:03:40.338Z,83028.06
2023-04-15T00:06:43.160Z,83009.09
2023-04-15T00:09:46.158Z,82997.97
2023-04-15T00:12:48.554Z,82990.06
2023-04-15T00:15:51.324Z,82990.03
2023-04-15T00:18:53.832Z,82982.94
2023-04-15T00:21:57.398Z,82977.41
2023-04-15T00:24:59.778Z,82983.72
2023-04-15T00:28:02.828Z,82977.41
2023-04-15T00:31:05.387Z,82977.41
2023-04-15T00:34:08.535Z,82977.41
2023-04-15T00:37:10.975Z,82981.37
2023-04-15T00:40:14.336Z,82972.66
2023-04-15T00:43:17.019Z,82973.47
2023-04-15T00:46:21.540Z,82967.91
2023-04-15T00:49:24.951Z,82967.94
2023-04-15T00:52:27.714Z,82971.06
2023-04-15T00:55:30.511Z,82967.94
2023-04-15T00:58:33.369Z,82967.97
2023-04-15T01:01:37.154Z,82963.97
2023-04-15T01:04:40.104Z,82969.50
2023-04-15T01:07:42.530Z,82972.72
2023-04-15T01:10:45.511Z,82971.09
2023-04-15T01:13:48.561Z,82971.09
2023-04-15T01:16:52.675Z,82968.75
2023-04-15T01:19:57.901Z,82972.69
2023-04-15T01:23:00.860Z,82976.63
2023-04-15T01:26:03.881Z,82975.84
2023-04-15T01:29:06.924Z,82977.41
2023-04-15T01:32:09.357Z,82973.53
2023-04-15T01:35:12.013Z,82984.56
2023-04-15T01:38:14.340Z,82977.44
2023-04-15T01:41:17.397Z,82979.03
2023-04-15T01:44:20.228Z,82976.66
2023-04-15T01:47:23.316Z,82982.19
2023-04-15T01:50:27.206Z,82973.50
2023-04-15T01:53:31.021Z,82967.94
2023-04-15T01:56:33.665Z,82966.34
2023-04-15T01:59:37.929Z,82968.72
2023-04-15T02:02:40.705Z,82971.09
2023-04-15T02:05:43.715Z,82970.28
2023-04-15T02:08:46.530Z,82971.09
2023-04-15T02:11:49.347Z,82972.66
2023-04-15T02:14:51.724Z,82971.88
2023-04-15T02:17:55.506Z,82964.75
2023-04-15T02:20:58.968Z,82965.56
2023-04-15T02:24:02.794Z,82966.34
2023-04-15T02:27:05.239Z,82963.22
2023-04-15T02:30:08.501Z,82956.06
2023-04-15T02:33:11.312Z,82964.75
2023-04-15T02:36:14.664Z,82971.06
2023-04-15T02:39:18.654Z,82971.06
2023-04-15T02:42:21.717Z,82963.16
2023-04-15T02:45:27.654Z,82961.59
2023-04-15T02:48:30.498Z,82964.75
2023-04-15T02:51:32.876Z,82963.16
2023-04-15T02:54:35.575Z,82958.41
2023-04-15T02:57:39.371Z,82956.81
2023-04-15T03:00:42.429Z,82952.09
2023-04-15T03:03:45.015Z,82947.34
2023-04-15T03:06:47.796Z,82945.78
2023-04-15T03:09:50.630Z,82942.59
2023-04-15T03:12:53.340Z,82941.03
2023-04-15T03:15:56.130Z,82939.44
2023-04-15T03:18:59.095Z,82940.25
2023-04-15T03:22:01.858Z,82937.88
2023-04-15T03:25:05.184Z,82935.50
2023-04-15T03:28:08.255Z,82931.56
2023-04-15T03:31:11.037Z,82934.69
2023-04-15T03:34:13.489Z,82928.37
2023-04-15T03:37:16.552Z,82925.22
2023-04-15T03:40:19.142Z,82929.94
2023-04-15T03:43:22.073Z,82928.37
2023-04-15T03:46:24.648Z,82935.47
2023-04-15T03:49:27.359Z,82933.09
2023-04-15T03:52:29.768Z,82933.09
2023-04-15T03:55:32.538Z,82933.13
2023-04-15T03:58:34.924Z,82928.34
2023-04-15T04:01:37.656Z,82923.59
2023-04-15T04:04:40.843Z,82912.53
2023-04-15T04:07:43.503Z,82917.31
2023-04-15T04:10:46.176Z,82931.53
2023-04-15T04:13:48.569Z,82935.47
2023-04-15T04:16:51.457Z,82928.37
2023-04-15T04:19:53.823Z,82928.34
2023-04-15T04:22:56.547Z,82925.19
2023-04-15T04:25:58.854Z,82926.03
2023-04-15T04:29:01.777Z,82926.78
2023-04-15T04:32:04.435Z,82921.25
2023-04-15T04:35:07.455Z,82924.44
2023-04-15T04:38:09.801Z,82918.91
2023-04-15T04:41:12.517Z,82925.22
2023-04-15T04:44:14.887Z,82920.47
2023-04-15T04:47:17.664Z,82904.66
2023-04-15T04:50:20.085Z,82903.03
2023-04-15T04:53:22.922Z,82895.13
2023-04-15T04:56:25.231Z,82893.56
2023-04-15T04:59:28.234Z,82903.06
2023-04-15T05:02:31.089Z,82895.91
2023-04-15T05:05:35.520Z,82884.88
2023-04-15T05:08:39.210Z,82871.38
2023-04-15T05:11:43.046Z,82854.00
2023-04-15T05:14:46.900Z,82830.22
2023-04-15T05:17:49.697Z,82818.28
2023-04-15T05:20:52.208Z,82811.16
2023-04-15T05:23:54.887Z,82790.59
2023-04-15T05:26:57.438Z,82789.00
2023-04-15T05:30:00.196Z,82788.97
2023-04-15T05:33:02.619Z,82793.75
2023-04-15T05:36:05.518Z,82784.22
2023-04-15T05:39:08.086Z,82773.94
2023-04-15T05:42:10.964Z,82796.09
2023-04-15T05:45:13.700Z,82805.63
2023-04-15T05:48:16.400Z,82817.47
2023-04-15T05:51:18.803Z,82815.09
2023-04-15T05:54:22.651Z,82801.62
2023-04-15T05:57:25.040Z,82788.22
2023-04-15T06:00:27.653Z,82784.19
2023-04-15T06:03:30.645Z,82785.78
2023-04-15T06:06:33.476Z,82784.19
2023-04-15T06:09:36.244Z,82791.34
2023-04-15T06:12:38.650Z,82784.19
2023-04-15T06:15:41.313Z,82777.88
2023-04-15T06:18:43.693Z,82762.03
2023-04-15T06:21:46.542Z,82746.09
2023-04-15T06:24:53.069Z,82754.00
2023-04-15T06:27:55.912Z,82771.50
2023-04-15T06:30:58.378Z,82768.31
2023-04-15T06:34:00.974Z,82773.00
2023-04-15T06:37:05.095Z,82746.03
2023-04-15T06:40:10.165Z,82733.38
2023-04-15T06:43:12.960Z,82734.12
2023-04-15T06:46:15.874Z,82711.16
2023-04-15T06:49:18.258Z,82696.94
2023-04-15T06:52:21.247Z,82707.97
2023-04-15T06:55:23.685Z,82682.59
2023-04-15T06:58:26.543Z,82628.63
2023-04-15T07:01:29.051Z,82588.94
2023-04-15T07:04:32.889Z,82498.38
2023-04-15T07:07:36.234Z,82443.56
2023-04-15T07:10:38.945Z,82378.34
2023-04-15T07:13:41.386Z,82301.19
2023-04-15T07:16:44.151Z,82240.63
2023-04-15T07:19:46.610Z,82196.03
2023-04-15T07:22:49.556Z,82207.12
2023-04-15T07:25:56.063Z,82240.69
2023-04-15T07:28:58.730Z,82267.72
2023-04-15T07:32:01.120Z,82281.22
2023-04-15T07:35:04.105Z,82352.12
2023-04-15T07:38:06.909Z,82272.53
2023-04-15T07:41:09.799Z,82224.72
2023-04-15T07:44:12.669Z,82245.47
2023-04-15T07:47:15.765Z,82232.63
2023-04-15T07:50:19.769Z,82151.34
2023-04-15T07:53:22.384Z,82107.59
2023-04-15T07:56:24.835Z,82161.75
